createdAt,value
2023-02-11T00:00:02.888Z,49.20
2023-02-11T00:01:01.920Z,45.55
2023-02-11T00:02:02.824Z,30.81
2023-02-11T00:03:02.848Z,38.91
2023-02-11T00:04:02.003Z,50.67
2023-02-11T00:05:02.897Z,58.54
2023-02-11T00:06:02.061Z,55.32
2023-02-11T00:07:03.092Z,56.44
2023-02-11T00:08:03.162Z,50.27
2023-02-11T00:09:03.174Z,57.44
2023-02-11T00:10:02.929Z,52.19
2023-02-11T00:11:02.948Z,70.11
2023-02-11T00:12:02.943Z,67.70
2023-02-11T00:13:02.272Z,45.24
2023-02-11T00:14:03.311Z,43.89
2023-02-11T00:15:03.330Z,52.60
2023-02-11T00:16:02.392Z,51.17
2023-02-11T00:17:03.166Z,54.87
2023-02-11T00:18:03.147Z,57.75
2023-02-11T00:19:03.469Z,54.37
2023-02-11T00:20:03.497Z,50.16
2023-02-11T00:21:03.543Z,55.07
2023-02-11T00:22:02.565Z,54.77
2023-02-11T00:23:02.591Z,50.44
2023-02-11T00:24:02.642Z,56.40
2023-02-11T00:25:03.368Z,77.16
2023-02-11T00:26:03.802Z,49.80
2023-02-11T00:27:03.507Z,61.29
2023-02-11T00:28:03.829Z,54.84
2023-02-11T00:29:03.800Z,56.35
2023-02-11T00:30:02.844Z,53.13
2023-02-11T00:31:02.986Z,49.17
2023-02-11T00:32:03.938Z,52.56
2023-02-11T00:33:03.664Z,81.85
2023-02-11T00:34:02.999Z,48.94
2023-02-11T00:35:03.025Z,48.74
2023-02-11T00:35:04.741Z,90.28
2023-02-11T00:36:04.064Z,52.52
2023-02-11T00:36:04.795Z,101.52
2023-02-11T00:37:04.084Z,53.92
2023-02-11T00:37:04.826Z,81.40
2023-02-11T00:38:04.119Z,51.22
2023-02-11T00:38:04.974Z,81.09
2023-02-11T00:39:03.142Z,48.22
2023-02-11T00:39:05.022Z,75.97
2023-02-11T00:40:06.382Z,100.64
2023-02-11T00:41:03.214Z,50.31
2023-02-11T00:41:04.998Z,110.53
2023-02-11T00:42:03.254Z,51.84
2023-02-11T00:42:04.964Z,118.46
2023-02-11T00:43:04.293Z,57.69
2023-02-11T00:43:04.949Z,114.15
2023-02-11T00:44:04.048Z,108.27
2023-02-11T00:45:03.356Z,54.56
2023-02-11T00:46:03.497Z,58.70
2023-02-11T00:46:05.001Z,101.39
2023-02-11T00:47:03.929Z,93.42
2023-02-11T00:48:03.444Z,55.14
2023-02-11T00:49:04.481Z,50.47
2023-02-11T00:49:04.934Z,103.22
2023-02-11T00:50:04.542Z,49.36
2023-02-11T00:50:04.958Z,87.37
2023-02-11T00:51:03.574Z,53.57
2023-02-11T00:51:04.920Z,89.31
2023-02-11T00:52:04.622Z,54.44
2023-02-11T00:52:04.907Z,83.46
2023-02-11T00:53:03.642Z,56.98
2023-02-11T00:53:04.996Z,86.20
2023-02-11T00:54:03.674Z,50.61
2023-02-11T00:54:05.025Z,91.19
2023-02-11T00:55:04.722Z,56.67
2023-02-11T00:55:04.954Z,101.01
2023-02-11T00:56:03.892Z,87.94
2023-02-11T00:56:04.753Z,60.40
2023-02-11T00:57:03.796Z,51.57
2023-02-11T00:57:04.894Z,107.65
2023-02-11T00:58:04.827Z,58.63
2023-02-11T00:58:04.893Z,103.68
2023-02-11T00:59:04.825Z,109.02
2023-02-11T00:59:04.852Z,57.90
2023-02-11T01:00:04.037Z,88.20
2023-02-11T01:01:03.875Z,61.99
2023-02-11T01:01:05.033Z,50.90
2023-02-11T01:02:03.860Z,74.51
2023-02-11T01:02:04.977Z,56.51
2023-02-11T01:03:04.834Z,89.21
2023-02-11T01:03:05.020Z,54.88
2023-02-11T01:04:04.858Z,73.78
2023-02-11T01:04:05.062Z,59.51
2023-02-11T01:05:03.945Z,71.17
2023-02-11T01:05:05.129Z,59.17
2023-02-11T01:06:04.986Z,76.23
2023-02-11T01:06:05.128Z,53.15
2023-02-11T01:07:04.984Z,62.78
2023-02-11T01:07:05.180Z,54.16
2023-02-11T01:08:03.996Z,73.34
2023-02-11T01:08:05.197Z,53.53
2023-02-11T01:09:04.070Z,83.86
2023-02-11T01:09:05.320Z,52.14
2023-02-11T01:10:04.309Z,52.32
2023-02-11T01:10:05.046Z,68.96
2023-02-11T01:11:04.374Z,61.21
2023-02-11T01:11:05.109Z,58.44
2023-02-11T01:12:04.023Z,59.26
2023-02-11T01:13:05.142Z,54.19
2023-02-11T01:13:05.422Z,52.27
2023-02-11T01:14:04.121Z,59.11
2023-02-11T01:14:05.445Z,56.32
2023-02-11T01:15:04.093Z,75.55
2023-02-11T01:15:05.484Z,58.49
2023-02-11T01:16:04.589Z,56.55
2023-02-11T01:16:05.146Z,70.37
2023-02-11T01:17:04.576Z,55.69
2023-02-11T01:17:05.081Z,61.03
2023-02-11T01:18:04.062Z,56.67
2023-02-11T01:18:05.618Z,51.96
2023-02-11T01:19:04.164Z,65.92
2023-02-11T01:19:05.689Z,54.25
2023-02-11T01:20:04.271Z,91.56
2023-02-11T01:20:05.724Z,52.85
2023-02-11T01:21:04.254Z,93.72
2023-02-11T01:21:04.765Z,51.37
2023-02-11T01:22:04.207Z,110.10
2023-02-11T01:22:04.782Z,59.31
2023-02-11T01:23:04.820Z,55.09
2023-02-11T01:23:05.285Z,103.42
2023-02-11T01:24:05.505Z,77.46
2023-02-11T01:24:05.868Z,52.95
2023-02-11T01:25:05.307Z,84.39
2023-02-11T01:25:05.933Z,59.45
2023-02-11T01:26:04.489Z,83.62
2023-02-11T01:26:05.957Z,54.01
2023-02-11T01:27:05.000Z,55.11
2023-02-11T01:27:05.429Z,86.99
2023-02-11T01:28:05.448Z,95.49
2023-02-11T01:28:06.085Z,57.36
2023-02-11T01:29:05.083Z,57.94
2023-02-11T01:29:05.545Z,108.93
2023-02-11T01:30:05.686Z,112.13
2023-02-11T01:30:06.132Z,56.22
2023-02-11T01:31:05.527Z,129.70
2023-02-11T01:31:06.208Z,55.84
2023-02-11T01:32:05.621Z,155.83
2023-02-11T01:32:06.276Z,56.46
2023-02-11T01:33:05.257Z,56.61
2023-02-11T01:33:05.653Z,126.36
2023-02-11T01:34:04.627Z,89.30
2023-02-11T01:34:06.307Z,58.38
2023-02-11T01:35:04.698Z,85.86
2023-02-11T01:35:06.335Z,56.95
2023-02-11T01:36:05.765Z,88.75
2023-02-11T01:36:06.376Z,61.25
2023-02-11T01:37:04.805Z,82.10
2023-02-11T01:37:06.449Z,56.97
2023-02-11T01:38:05.750Z,105.14
2023-02-11T01:38:06.464Z,60.77
2023-02-11T01:39:04.813Z,121.39
2023-02-11T01:39:06.526Z,57.22
2023-02-11T01:40:04.949Z,114.84
2023-02-11T01:40:05.562Z,52.31
2023-02-11T01:41:04.861Z,109.61
2023-02-11T01:41:06.632Z,62.35
2023-02-11T01:42:05.658Z,54.08
2023-02-11T01:42:05.979Z,109.20
2023-02-11T01:43:05.706Z,56.03
2023-02-11T01:43:06.095Z,110.15
2023-02-11T01:44:05.119Z,97.15
2023-02-11T01:44:05.742Z,54.18
2023-02-11T01:45:05.033Z,88.41
2023-02-11T01:45:06.812Z,59.98
2023-02-11T01:46:06.155Z,78.09
2023-02-11T01:46:06.903Z,60.76
2023-02-11T01:47:06.111Z,84.16
2023-02-11T01:47:06.898Z,54.73
2023-02-11T01:48:05.139Z,94.86
2023-02-11T01:48:05.944Z,56.20
2023-02-11T01:49:06.246Z,105.25
2023-02-11T01:49:07.108Z,58.53
2023-02-11T01:50:06.180Z,109.28
2023-02-11T01:50:07.013Z,58.87
2023-02-11T01:51:05.238Z,114.09
2023-02-11T01:51:06.069Z,54.61
2023-02-11T01:52:06.357Z,116.57
2023-02-11T01:52:07.150Z,60.12
2023-02-11T01:53:05.397Z,124.52
2023-02-11T01:53:07.170Z,57.53
2023-02-11T01:54:06.322Z,139.98
2023-02-11T01:54:07.238Z,60.34
2023-02-11T01:55:06.354Z,138.66
2023-02-11T01:55:07.255Z,59.89
2023-02-11T01:56:06.302Z,56.06
2023-02-11T01:56:06.496Z,134.96
2023-02-11T01:57:06.352Z,60.75
2023-02-11T01:57:06.548Z,122.60
2023-02-11T01:58:06.510Z,120.87
2023-02-11T01:58:07.389Z,58.09
2023-02-11T01:59:06.618Z,124.87
2023-02-11T01:59:07.440Z,56.13
2023-02-11T02:00:06.493Z,63.11
2023-02-11T02:00:06.573Z,131.56
2023-02-11T02:01:06.557Z,62.35
2023-02-11T02:01:06.619Z,127.25
2023-02-11T02:02:05.619Z,113.59
2023-02-11T02:02:06.613Z,53.50
2023-02-11T02:03:06.676Z,54.25
2023-02-11T02:03:06.740Z,106.27
2023-02-11T02:04:05.632Z,107.83
2023-02-11T02:04:07.728Z,62.23
2023-02-11T02:05:05.745Z,91.38
2023-02-11T02:05:07.763Z,58.34
2023-02-11T02:06:06.720Z,103.26
2023-02-11T02:06:06.818Z,61.86
2023-02-11T02:07:06.807Z,106.29
2023-02-11T02:07:06.863Z,55.62
2023-02-11T02:08:06.915Z,57.79
2023-02-11T02:08:06.955Z,86.22
2023-02-11T02:09:06.807Z,94.12
2023-02-11T02:09:07.973Z,59.21
2023-02-11T02:10:06.953Z,100.97
2023-02-11T02:10:07.010Z,60.34
2023-02-11T02:11:06.943Z,102.93
2023-02-11T02:11:08.078Z,62.93
2023-02-11T02:12:07.029Z,116.92
2023-02-11T02:12:07.130Z,63.16
2023-02-11T02:13:07.103Z,133.58
2023-02-11T02:13:08.189Z,60.76
2023-02-11T02:14:07.090Z,141.19
2023-02-11T02:14:08.241Z,63.15
2023-02-11T02:15:07.236Z,134.43
2023-02-11T02:15:07.293Z,63.72
2023-02-11T02:16:09.670Z,144.68
2023-02-11T02:16:09.903Z,62.80
2023-02-11T02:17:07.209Z,162.30
2023-02-11T02:17:07.610Z,61.73
2023-02-11T02:18:07.207Z,140.48
2023-02-11T02:18:07.666Z,64.23
2023-02-11T02:19:07.232Z,155.08
2023-02-11T02:19:08.705Z,61.17
2023-02-11T02:20:06.251Z,163.61
2023-02-11T02:20:08.759Z,62.73
2023-02-11T02:21:06.196Z,171.66
2023-02-11T02:21:07.810Z,59.90
2023-02-11T02:22:07.212Z,165.17
2023-02-11T02:22:08.868Z,62.52
2023-02-11T02:23:07.139Z,176.31
2023-02-11T02:23:07.931Z,58.39
2023-02-11T02:24:07.194Z,178.04
2023-02-11T02:24:09.001Z,62.03
2023-02-11T02:25:06.073Z,173.76
2023-02-11T02:25:09.044Z,54.63
2023-02-11T02:26:07.191Z,175.33
2023-02-11T02:26:09.105Z,62.01
2023-02-11T02:27:06.134Z,168.85
2023-02-11T02:28:06.310Z,171.56
2023-02-11T02:29:07.098Z,160.53
2023-02-11T02:29:09.291Z,60.81
2023-02-11T02:30:07.151Z,159.38
2023-02-11T02:31:06.185Z,164.79
2023-02-11T02:32:07.099Z,162.89
2023-02-11T02:33:21.642Z,160.52
2023-02-11T02:33:21.955Z,62.13
2023-02-11T02:34:07.101Z,150.32
2023-02-11T02:35:06.091Z,140.03
2023-02-11T02:35:09.506Z,62.46
2023-02-11T02:36:07.138Z,136.13
2023-02-11T02:37:06.084Z,144.07
2023-02-11T02:38:07.125Z,134.99
2023-02-11T02:39:07.064Z,123.55
2023-02-11T02:39:08.459Z,61.86
2023-02-11T02:40:07.016Z,99.70
2023-02-11T02:41:07.048Z,85.31
2023-02-11T02:41:08.452Z,62.51
2023-02-11T02:42:06.996Z,86.17
2023-02-11T02:43:07.053Z,99.91
2023-02-11T02:44:07.083Z,90.94
2023-02-11T02:45:06.103Z,83.75
2023-02-11T02:46:07.133Z,98.45
2023-02-11T02:47:07.212Z,104.31
2023-02-11T02:48:07.276Z,107.64
2023-02-11T02:49:06.237Z,88.34
2023-02-11T02:50:07.325Z,79.46
2023-02-11T02:51:07.473Z,86.13
2023-02-11T02:52:07.437Z,75.75
2023-02-11T02:53:07.474Z,50.68
2023-02-11T02:54:07.426Z,45.06
2023-02-11T02:55:06.487Z,63.68
2023-02-11T02:56:07.478Z,63.07
2023-02-11T02:57:07.565Z,81.88
2023-02-11T02:58:07.609Z,100.08
2023-02-11T02:59:07.627Z,92.09
2023-02-11T03:00:07.726Z,184.81
2023-02-11T03:01:06.886Z,185.37
2023-02-11T03:02:06.798Z,203.50
2023-02-11T03:03:07.856Z,211.26
2023-02-11T03:04:08.202Z,195.68
2023-02-11T03:05:06.933Z,220.09
2023-02-11T03:06:06.906Z,217.78
2023-02-11T03:07:07.946Z,216.38
2023-02-11T03:08:08.014Z,218.01
2023-02-11T03:09:09.017Z,201.00
2023-02-11T03:10:07.058Z,198.40
2023-02-11T03:11:08.071Z,205.63
2023-02-11T03:12:08.081Z,210.91
2023-02-11T03:13:07.008Z,208.01
2023-02-11T03:14:08.097Z,205.83
2023-02-11T03:15:07.385Z,199.09
2023-02-11T03:16:07.032Z,201.11
2023-02-11T03:17:08.029Z,195.01
2023-02-11T03:18:08.028Z,191.17
2023-02-11T03:19:08.018Z,194.05
2023-02-11T03:20:08.061Z,183.25
2023-02-11T03:21:07.997Z,154.02
2023-02-11T03:22:08.021Z,154.58
2023-02-11T03:23:08.052Z,147.87
2023-02-11T03:24:07.941Z,159.94
2023-02-11T03:25:07.955Z,160.51
2023-02-11T03:26:07.027Z,173.26
2023-02-11T03:27:07.120Z,168.35
2023-02-11T03:28:07.021Z,180.07
2023-02-11T03:29:07.896Z,176.78
2023-02-11T03:30:07.019Z,166.83
2023-02-11T03:31:08.194Z,180.95
2023-02-11T03:32:07.953Z,177.29
2023-02-11T03:33:07.918Z,159.95
2023-02-11T03:34:07.961Z,171.29
2023-02-11T03:35:07.886Z,165.44
2023-02-11T03:36:07.867Z,171.19
2023-02-11T03:37:08.023Z,165.27
2023-02-11T03:38:06.915Z,176.21
2023-02-11T03:39:07.841Z,176.44
2023-02-11T03:40:07.965Z,167.94
2023-02-11T03:41:06.874Z,147.81
2023-02-11T03:42:07.884Z,148.86
2023-02-11T03:43:06.950Z,141.94
2023-02-11T03:44:07.830Z,143.38
2023-02-11T03:45:07.904Z,153.50
2023-02-11T03:46:06.945Z,147.56
2023-02-11T03:47:07.946Z,136.11
2023-02-11T03:48:08.034Z,152.22
2023-02-11T03:49:06.969Z,157.38
2023-02-11T03:50:07.101Z,161.22
2023-02-11T03:51:08.092Z,159.42
2023-02-11T03:52:08.284Z,146.56
2023-02-11T03:53:07.196Z,152.91
2023-02-11T03:54:07.132Z,152.54
2023-02-11T03:55:07.259Z,134.13
2023-02-11T03:56:08.161Z,138.44
2023-02-11T03:57:08.185Z,140.45
2023-02-11T03:58:08.192Z,147.54
2023-02-11T03:59:07.207Z,175.87
2023-02-11T04:00:07.220Z,185.96
2023-02-11T04:01:07.312Z,179.59
2023-02-11T04:02:07.286Z,164.39
2023-02-11T04:03:08.352Z,153.14
2023-02-11T04:04:07.402Z,154.90
2023-02-11T04:05:07.426Z,170.07
2023-02-11T04:06:08.452Z,180.89
2023-02-11T04:07:08.665Z,169.86
2023-02-11T04:08:07.558Z,185.04
2023-02-11T04:09:08.577Z,203.75
2023-02-11T04:10:08.630Z,168.45
2023-02-11T04:11:08.610Z,161.77
2023-02-11T04:12:08.534Z,161.21
2023-02-11T04:13:07.694Z,162.40
2023-02-11T04:14:08.565Z,168.64
2023-02-11T04:15:08.791Z,166.68
2023-02-11T04:16:08.629Z,166.92
2023-02-11T04:17:08.725Z,144.80
2023-02-11T04:18:07.715Z,136.22
2023-02-11T04:19:08.698Z,130.19
2023-02-11T04:20:08.754Z,147.89
2023-02-11T04:21:08.646Z,131.62
2023-02-11T04:22:07.721Z,107.24
2023-02-11T04:23:08.712Z,98.25
2023-02-11T04:24:08.722Z,97.00
2023-02-11T04:25:07.718Z,92.42
2023-02-11T04:26:07.806Z,114.56
2023-02-11T04:27:08.877Z,135.83
2023-02-11T04:28:08.910Z,199.37
2023-02-11T04:29:08.880Z,195.49
2023-02-11T04:30:08.931Z,159.52
2023-02-11T04:31:09.010Z,140.76
2023-02-11T04:32:08.071Z,128.44
2023-02-11T04:33:09.126Z,138.92
2023-02-11T04:34:09.096Z,137.65
2023-02-11T04:35:09.250Z,133.85
2023-02-11T04:36:09.211Z,146.51
2023-02-11T04:37:08.373Z,156.57
2023-02-11T04:38:09.333Z,145.80
2023-02-11T04:39:09.432Z,143.20
2023-02-11T04:40:09.485Z,108.36
2023-02-11T04:41:09.410Z,96.98
2023-02-11T04:42:09.478Z,101.35
2023-02-11T04:43:09.450Z,104.66
2023-02-11T04:44:09.572Z,106.33
2023-02-11T04:45:08.447Z,92.31
2023-02-11T04:46:08.617Z,79.99
2023-02-11T04:47:09.539Z,91.86
2023-02-11T04:48:09.529Z,96.38
2023-02-11T04:49:09.645Z,93.24
2023-02-11T04:50:09.706Z,92.43
2023-02-11T04:51:09.778Z,90.18
2023-02-11T04:52:09.937Z,113.99
2023-02-11T04:53:09.846Z,96.17
2023-02-11T04:54:09.853Z,102.01
2023-02-11T04:55:08.875Z,103.12
2023-02-11T04:56:09.866Z,103.66
2023-02-11T04:57:09.932Z,79.33
2023-02-11T04:58:09.938Z,63.36
2023-02-11T04:59:10.107Z,66.33
2023-02-11T05:00:08.949Z,74.97
2023-02-11T05:01:09.170Z,78.42
2023-02-11T05:02:10.070Z,92.06
2023-02-11T05:03:10.050Z,60.15
2023-02-11T05:04:10.188Z,63.99
2023-02-11T05:05:10.110Z,91.41
2023-02-11T05:06:10.228Z,92.78
2023-02-11T05:07:10.150Z,103.83
2023-02-11T05:08:10.203Z,81.42
2023-02-11T05:09:10.263Z,78.43
2023-02-11T05:10:10.390Z,100.45
2023-02-11T05:11:10.238Z,92.36
2023-02-11T05:12:10.298Z,91.42
2023-02-11T05:13:09.338Z,113.68
2023-02-11T05:14:09.349Z,134.11
2023-02-11T05:15:09.380Z,80.16
2023-02-11T05:16:09.413Z,64.07
2023-02-11T05:17:10.562Z,204.11
2023-02-11T05:18:10.556Z,200.75
2023-02-11T05:19:10.563Z,169.64
2023-02-11T05:20:09.706Z,131.03
2023-02-11T05:21:09.705Z,116.28
2023-02-11T05:22:09.727Z,106.65
2023-02-11T05:23:09.754Z,73.84
2023-02-11T05:24:10.780Z,67.68
2023-02-11T05:25:10.772Z,80.95
2023-02-11T05:26:10.974Z,83.11
2023-02-11T05:27:10.897Z,89.29
2023-02-11T05:28:11.100Z,86.55
2023-02-11T05:29:10.942Z,102.51
2023-02-11T05:30:10.049Z,62.65
2023-02-11T05:31:10.161Z,57.37
2023-02-11T05:32:10.075Z,48.46
2023-02-11T05:33:11.248Z,36.95
2023-02-11T05:34:11.108Z,25.67
2023-02-11T05:35:10.196Z,26.07
2023-02-11T05:36:11.138Z,27.90
2023-02-11T05:37:11.433Z,42.91
2023-02-11T05:38:10.292Z,37.40
2023-02-11T05:39:11.295Z,26.11
2023-02-11T05:40:10.406Z,29.08
2023-02-11T05:41:11.429Z,27.60
2023-02-11T05:42:10.428Z,75.30
2023-02-11T05:43:11.430Z,69.65
2023-02-11T05:44:11.399Z,59.57
2023-02-11T05:45:11.475Z,30.63
2023-02-11T05:46:10.570Z,44.91
2023-02-11T05:47:11.549Z,39.69
2023-02-11T05:48:11.663Z,116.13
2023-02-11T05:49:11.697Z,163.01
2023-02-11T05:50:11.680Z,192.99
2023-02-11T05:51:11.739Z,211.65
2023-02-11T05:52:11.671Z,208.97
2023-02-11T05:53:10.767Z,233.80
2023-02-11T05:54:11.802Z,238.06
2023-02-11T05:55:11.698Z,234.79
2023-02-11T05:56:11.705Z,224.58
2023-02-11T05:57:10.704Z,229.41
2023-02-11T05:58:10.784Z,214.70
2023-02-11T05:59:10.749Z,206.73
2023-02-11T06:00:11.732Z,196.54
2023-02-11T06:01:11.792Z,189.12
2023-02-11T06:02:11.860Z,201.54
2023-02-11T06:03:11.857Z,184.57
2023-02-11T06:04:10.962Z,175.05
2023-02-11T06:05:12.053Z,176.57
2023-02-11T06:06:11.043Z,190.51
2023-02-11T06:07:12.060Z,184.54
2023-02-11T06:08:11.152Z,182.28
2023-02-11T06:09:12.277Z,172.40
2023-02-11T06:10:12.205Z,170.51
2023-02-11T06:11:11.370Z,176.85
2023-02-11T06:12:12.275Z,169.54
2023-02-11T06:13:12.344Z,174.26
2023-02-11T06:14:11.397Z,182.29
2023-02-11T06:15:11.378Z,195.22
2023-02-11T06:16:12.373Z,164.42
2023-02-11T06:17:13.989Z,152.86
2023-02-11T06:18:11.433Z,153.03
2023-02-11T06:19:12.339Z,150.21
2023-02-11T06:20:11.343Z,142.87
2023-02-11T06:21:12.364Z,144.11
2023-02-11T06:22:12.345Z,146.04
2023-02-11T06:23:12.368Z,153.56
2023-02-11T06:24:11.466Z,154.60
2023-02-11T06:25:12.395Z,163.27
2023-02-11T06:26:12.393Z,164.74
2023-02-11T06:27:12.314Z,163.20
2023-02-11T06:28:11.293Z,160.75
2023-02-11T06:29:12.609Z,153.00
2023-02-11T06:30:11.315Z,153.47
2023-02-11T06:31:12.312Z,152.69
2023-02-11T06:32:28.087Z,147.26
2023-02-11T06:33:12.359Z,146.45
2023-02-11T06:34:11.471Z,139.82
2023-02-11T06:35:12.632Z,141.27
2023-02-11T06:36:11.293Z,151.52
2023-02-11T06:37:11.268Z,136.24
2023-02-11T06:38:12.222Z,130.72
2023-02-11T06:39:11.265Z,131.47
2023-02-11T06:40:11.169Z,129.77
2023-02-11T06:41:12.197Z,144.93
2023-02-11T06:42:12.176Z,172.92
2023-02-11T06:43:11.266Z,160.16
2023-02-11T06:44:12.153Z,136.77
2023-02-11T06:45:12.213Z,134.84
2023-02-11T06:46:11.314Z,125.97
2023-02-11T06:47:12.215Z,154.49
2023-02-11T06:48:11.113Z,142.83
2023-02-11T06:49:12.244Z,142.08
2023-02-11T06:50:12.169Z,143.22
2023-02-11T06:51:12.179Z,147.29
2023-02-11T06:52:12.238Z,143.54
2023-02-11T06:53:11.143Z,153.39
2023-02-11T06:54:12.190Z,153.76
2023-02-11T06:55:12.272Z,137.80
2023-02-11T06:56:11.265Z,133.30
2023-02-11T06:57:12.393Z,135.77
2023-02-11T06:58:12.422Z,134.27
2023-02-11T06:59:12.466Z,136.84
2023-02-11T07:00:12.468Z,138.62
2023-02-11T07:02:12.619Z,141.56
2023-02-11T07:03:12.519Z,144.75
2023-02-11T07:04:12.574Z,149.78
2023-02-11T07:05:12.558Z,158.85
2023-02-11T07:07:11.793Z,200.73
2023-02-11T07:08:12.708Z,197.89
2023-02-11T07:09:12.798Z,150.62
2023-02-11T07:10:12.838Z,147.34
2023-02-11T07:11:11.842Z,157.83
2023-02-11T07:12:11.948Z,173.29
2023-02-11T07:13:12.838Z,175.44
2023-02-11T07:14:12.890Z,185.01
2023-02-11T07:15:12.951Z,187.98
2023-02-11T07:16:13.159Z,185.21
2023-02-11T07:17:13.079Z,192.35
2023-02-11T07:18:14.672Z,207.77
2023-02-11T07:22:13.127Z,227.37
2023-02-11T07:23:13.015Z,224.74
2023-02-11T07:23:14.634Z,65.60
2023-02-11T07:25:13.010Z,217.75
2023-02-11T07:25:14.668Z,64.05
2023-02-11T07:26:14.664Z,68.54
2023-02-11T07:27:11.970Z,216.88
2023-02-11T07:27:14.667Z,64.80
2023-02-11T07:28:14.738Z,65.37
2023-02-11T07:29:13.033Z,204.11
2023-02-11T07:30:12.948Z,197.11
2023-02-11T07:30:14.726Z,67.30
2023-02-11T07:31:13.093Z,193.75
2023-02-11T07:31:14.946Z,68.13
2023-02-11T07:33:14.738Z,65.17
2023-02-11T07:37:12.885Z,212.86
2023-02-11T07:37:14.806Z,66.29
2023-02-11T07:38:14.815Z,64.92
2023-02-11T07:39:11.992Z,210.20
2023-02-11T07:43:11.885Z,189.53
2023-02-11T07:43:14.863Z,65.99
2023-02-11T07:44:14.895Z,65.09
2023-02-11T07:45:14.886Z,67.16
2023-02-11T07:46:12.917Z,184.27
2023-02-11T07:48:12.892Z,172.36
2023-02-11T07:48:14.952Z,67.10
2023-02-11T07:49:14.930Z,67.31
2023-02-11T07:50:14.929Z,65.93
2023-02-11T07:51:14.935Z,66.51
2023-02-11T07:52:14.969Z,67.56
2023-02-11T07:53:14.950Z,67.94
2023-02-11T07:54:14.978Z,64.83
2023-02-11T07:55:12.023Z,176.56
2023-02-11T07:55:14.967Z,65.28
2023-02-11T07:57:14.987Z,68.41
2023-02-11T07:58:12.785Z,195.10
2023-02-11T08:00:15.036Z,65.18
2023-02-11T08:03:15.074Z,66.17
2023-02-11T08:04:12.882Z,246.15
2023-02-11T08:04:15.164Z,66.48
2023-02-11T08:05:12.904Z,252.46
2023-02-11T08:05:15.110Z,68.35
2023-02-11T08:07:15.119Z,65.90
2023-02-11T08:11:15.166Z,64.00
2023-02-11T08:12:13.246Z,232.40
2023-02-11T08:13:12.351Z,232.50
2023-02-11T08:13:15.197Z,64.46
2023-02-11T08:14:15.220Z,64.58
2023-02-11T08:15:13.505Z,212.24
2023-02-11T08:16:12.560Z,214.62
2023-02-11T08:17:15.263Z,65.99
2023-02-11T08:18:13.541Z,221.35
2023-02-11T08:19:15.287Z,64.90
2023-02-11T08:21:13.591Z,234.06
2023-02-11T08:21:15.329Z,63.66
2023-02-11T08:26:15.396Z,65.54
2023-02-11T08:27:15.405Z,65.80
2023-02-11T08:28:14.009Z,207.85
2023-02-11T08:28:15.459Z,66.43
2023-02-11T08:31:15.569Z,62.30
2023-02-11T08:33:15.485Z,63.06
2023-02-11T08:34:15.514Z,65.30
2023-02-11T08:35:15.524Z,64.99
2023-02-11T08:36:15.531Z,62.09
2023-02-11T08:37:15.556Z,65.02
2023-02-11T08:38:15.566Z,64.23
2023-02-11T08:39:19.576Z,64.01
2023-02-11T08:40:14.829Z,64.28
2023-02-11T08:41:15.847Z,64.52
2023-02-11T08:42:14.822Z,63.54
2023-02-11T08:43:15.818Z,64.26
2023-02-11T08:44:15.834Z,66.29
2023-02-11T08:45:15.842Z,66.32
2023-02-11T08:46:16.009Z,64.06
2023-02-11T08:47:15.866Z,64.36
2023-02-11T08:48:15.882Z,65.66
2023-02-11T08:49:14.904Z,64.55
2023-02-11T08:50:14.925Z,63.97
2023-02-11T08:51:16.001Z,64.52
2023-02-11T08:52:14.941Z,63.98
2023-02-11T08:53:14.957Z,63.97
2023-02-11T08:54:15.983Z,63.99
2023-02-11T08:55:16.019Z,61.60
2023-02-11T08:56:16.011Z,64.51
2023-02-11T08:57:16.024Z,64.88
2023-02-11T08:58:18.142Z,62.94
2023-02-11T08:59:16.031Z,63.15
2023-02-11T09:00:16.030Z,63.68
2023-02-11T09:01:16.401Z,63.92
2023-02-11T09:02:16.046Z,65.75
2023-02-11T09:03:16.027Z,64.67
2023-02-11T09:04:15.005Z,63.71
2023-02-11T09:05:16.065Z,66.29
2023-02-11T09:06:16.023Z,67.25
2023-02-11T09:07:15.998Z,62.45
2023-02-11T09:08:14.967Z,66.48
2023-02-11T09:09:15.979Z,67.22
2023-02-11T09:10:14.955Z,66.48
2023-02-11T09:11:15.999Z,65.48
2023-02-11T09:12:15.966Z,65.47
2023-02-11T09:13:14.948Z,63.46
2023-02-11T09:14:15.921Z,66.21
2023-02-11T09:15:15.941Z,66.05
2023-02-11T09:16:15.949Z,62.63
2023-02-11T09:17:15.903Z,67.73
2023-02-11T09:18:15.896Z,66.15
2023-02-11T09:19:15.896Z,67.70
2023-02-11T09:20:14.890Z,63.50
2023-02-11T09:21:15.876Z,64.71
2023-02-11T09:22:14.885Z,65.06
2023-02-11T09:23:17.585Z,65.19
2023-02-11T09:24:15.884Z,68.11
2023-02-11T09:25:14.862Z,64.23
2023-02-11T09:26:15.883Z,66.17
2023-02-11T09:27:15.853Z,66.48
2023-02-11T09:28:15.910Z,66.87
2023-02-11T09:29:15.846Z,62.51
2023-02-11T09:30:15.820Z,64.76
2023-02-11T09:31:15.940Z,66.82
2023-02-11T09:32:14.957Z,64.49
2023-02-11T09:33:15.795Z,64.28
2023-02-11T09:34:15.804Z,64.39
2023-02-11T09:35:15.806Z,63.09
2023-02-11T09:36:15.778Z,62.40
2023-02-11T09:37:15.767Z,64.47
2023-02-11T09:38:15.783Z,65.89
2023-02-11T09:39:15.756Z,64.68
2023-02-11T09:40:15.787Z,63.88
2023-02-11T09:41:15.737Z,64.37
2023-02-11T09:42:15.725Z,63.82
2023-02-11T09:43:15.767Z,64.09
2023-02-11T09:44:15.726Z,66.13
2023-02-11T09:45:15.705Z,65.16
2023-02-11T09:46:15.794Z,66.48
2023-02-11T09:47:15.697Z,66.72
2023-02-11T09:48:15.695Z,65.00
2023-02-11T09:49:15.693Z,64.00
2023-02-11T09:50:15.683Z,65.63
2023-02-11T09:51:15.670Z,65.88
2023-02-11T09:52:15.668Z,67.07
2023-02-11T09:53:15.643Z,65.06
2023-02-11T09:54:15.670Z,67.12
2023-02-11T09:55:15.657Z,67.09
2023-02-11T09:56:15.666Z,66.45
2023-02-11T09:57:27.871Z,64.10
2023-02-11T09:58:15.659Z,64.42
2023-02-11T09:59:15.688Z,65.00
2023-02-11T10:00:15.624Z,65.00
2023-02-11T10:01:15.627Z,65.84
2023-02-11T10:02:14.597Z,65.87
2023-02-11T10:03:15.581Z,65.43
2023-02-11T10:04:15.688Z,64.27
2023-02-11T10:05:14.571Z,67.98
2023-02-11T10:06:15.589Z,67.00
2023-02-11T10:07:15.568Z,68.39
2023-02-11T10:08:16.848Z,66.61
2023-02-11T10:09:15.573Z,68.49
2023-02-11T10:10:15.534Z,69.06
2023-02-11T10:11:29.629Z,67.40
2023-02-11T10:12:15.551Z,67.63
2023-02-11T10:13:15.525Z,67.78
2023-02-11T10:14:15.551Z,65.61
2023-02-11T10:15:15.551Z,67.54
2023-02-11T10:16:15.539Z,65.83
2023-02-11T10:17:15.549Z,67.98
2023-02-11T10:18:15.533Z,67.60
2023-02-11T10:19:14.491Z,65.71
2023-02-11T10:20:17.078Z,65.30
2023-02-11T10:21:14.668Z,65.47
2023-02-11T10:22:15.691Z,65.50
2023-02-11T10:23:15.678Z,66.23
2023-02-11T10:24:14.674Z,66.72
2023-02-11T10:25:15.671Z,65.93
2023-02-11T10:26:15.709Z,65.77
2023-02-11T10:27:15.764Z,68.10
2023-02-11T10:28:14.769Z,67.21
2023-02-11T10:29:15.745Z,67.56
2023-02-11T10:30:14.749Z,67.37
2023-02-11T10:31:14.898Z,67.47
2023-02-11T10:32:15.788Z,65.97
2023-02-11T10:33:15.815Z,66.12
2023-02-11T10:34:15.820Z,66.49
2023-02-11T10:35:14.842Z,66.32
2023-02-11T10:36:15.842Z,63.28
2023-02-11T10:37:14.861Z,66.95
2023-02-11T10:38:15.873Z,67.26
2023-02-11T10:39:15.895Z,62.77
2023-02-11T10:40:15.933Z,66.39
2023-02-11T10:41:15.923Z,67.88
2023-02-11T10:42:15.941Z,67.66
2023-02-11T10:43:15.946Z,66.73
2023-02-11T10:44:14.967Z,67.98
2023-02-11T10:45:14.983Z,67.73
2023-02-11T10:46:15.018Z,66.95
2023-02-11T10:47:16.089Z,68.90
2023-02-11T10:48:16.480Z,67.59
2023-02-11T10:49:16.033Z,68.61
2023-02-11T10:50:16.065Z,69.35
2023-02-11T10:51:16.079Z,66.57
2023-02-11T10:52:16.187Z,69.01
2023-02-11T10:53:16.099Z,69.47
2023-02-11T10:54:16.118Z,67.72
2023-02-11T10:55:16.187Z,69.46
2023-02-11T10:56:16.159Z,68.09
2023-02-11T10:57:16.171Z,65.88
2023-02-11T10:58:15.177Z,69.60
2023-02-11T10:59:16.197Z,64.44
2023-02-11T11:00:15.217Z,66.25
2023-02-11T11:01:24.285Z,67.12
2023-02-11T11:02:16.304Z,67.38
2023-02-11T11:03:15.235Z,67.90
2023-02-11T11:04:16.312Z,65.88
2023-02-11T11:05:16.218Z,68.78
2023-02-11T11:06:16.188Z,66.96
2023-02-11T11:07:16.206Z,68.19
2023-02-11T11:08:16.176Z,66.70